createdAt,value
2022-09-07T00:04:49.233Z,96.99
2022-09-07T00:09:49.160Z,95.83
2022-09-07T00:14:49.094Z,95.98
2022-09-07T00:19:49.025Z,96.79
2022-09-07T00:24:48.954Z,96.89
2022-09-07T00:29:48.897Z,97.10
2022-09-07T00:34:48.820Z,96.99
2022-09-07T00:39:48.823Z,97.34
2022-09-07T00:44:48.692Z,97.39
2022-09-07T00:49:48.633Z,97.19
2022-09-07T00:54:48.577Z,97.10
2022-09-07T00:59:48.515Z,97.30
2022-09-07T01:04:48.433Z,97.10
2022-09-07T01:09:48.372Z,96.99
2022-09-07T01:14:48.311Z,96.89
2022-09-07T01:19:48.251Z,96.94
2022-09-07T01:24:48.169Z,96.94
2022-09-07T01:29:48.123Z,97.14
2022-09-07T01:34:48.037Z,96.94
2022-09-07T01:39:48.226Z,96.94
2022-09-07T01:44:47.908Z,96.94
2022-09-07T01:49:47.850Z,96.94
2022-09-07T01:54:47.776Z,96.74
2022-09-07T01:59:47.739Z,97.59
2022-09-07T02:04:47.653Z,97.54
2022-09-07T02:09:47.590Z,97.34
2022-09-07T02:14:52.399Z,97.14
2022-09-07T02:19:47.467Z,97.04
2022-09-07T02:24:47.409Z,97.14
2022-09-07T02:29:47.334Z,97.04
2022-09-07T02:34:47.253Z,96.89
2022-09-07T02:39:47.241Z,96.79
2022-09-07T02:44:47.125Z,96.59
2022-09-07T02:49:47.090Z,96.49
2022-09-07T02:54:47.000Z,96.28
2022-09-07T02:59:46.943Z,96.19
2022-09-07T03:04:46.863Z,96.08
2022-09-07T03:09:46.805Z,95.78
2022-09-07T03:14:46.738Z,95.78
2022-09-07T03:19:46.694Z,96.08
2022-09-07T03:24:46.615Z,96.19
2022-09-07T03:29:46.545Z,95.98
2022-09-07T03:34:46.472Z,95.78
2022-09-07T03:39:46.477Z,95.78
2022-09-07T03:44:46.350Z,95.33
2022-09-07T03:49:46.320Z,95.68
2022-09-07T03:54:46.306Z,95.68
2022-09-07T03:59:46.140Z,95.43
2022-09-07T04:04:46.067Z,95.68
2022-09-07T04:09:46.012Z,95.78
2022-09-07T04:14:45.939Z,95.78
2022-09-07T04:19:45.887Z,96.39
2022-09-07T04:24:45.805Z,96.28
2022-09-07T04:29:45.744Z,95.68
2022-09-07T04:34:45.671Z,95.17
2022-09-07T04:39:45.649Z,95.17
2022-09-07T04:44:45.540Z,95.68
2022-09-07T04:49:45.484Z,95.68
2022-09-07T04:54:45.421Z,95.48
2022-09-07T04:59:45.356Z,95.07
2022-09-07T05:04:45.280Z,94.67
2022-09-07T05:09:45.220Z,94.87
2022-09-07T05:14:45.156Z,93.92
2022-09-07T05:19:45.094Z,92.96
2022-09-07T05:24:45.016Z,92.41
2022-09-07T05:34:47.575Z,91.66
2022-09-07T05:39:44.902Z,90.41
2022-09-07T05:44:45.340Z,90.01
2022-09-07T05:49:44.696Z,89.97
2022-09-07T05:54:44.629Z,88.72
2022-09-07T05:59:44.564Z,87.82
2022-09-07T06:04:44.491Z,87.26
2022-09-07T06:14:45.396Z,87.53
2022-09-07T06:19:44.301Z,87.08
2022-09-07T06:24:44.233Z,86.98
2022-09-07T06:29:44.169Z,87.08
2022-09-07T06:34:44.101Z,86.04
2022-09-07T06:39:44.160Z,84.31
2022-09-07T06:44:43.969Z,81.14
2022-09-07T06:49:43.906Z,80.64
2022-09-07T06:54:59.602Z,74.01
2022-09-07T06:59:44.824Z,66.57
2022-09-07T07:04:43.699Z,64.62
2022-09-07T07:09:43.646Z,63.27
2022-09-07T07:14:45.190Z,63.90
2022-09-07T07:19:43.525Z,65.97
2022-09-07T07:24:43.444Z,66.11
2022-09-07T07:29:43.392Z,66.57
2022-09-07T07:34:43.266Z,67.83
2022-09-07T07:44:44.162Z,70.65
2022-09-07T07:49:43.076Z,72.11
2022-09-07T07:54:43.002Z,73.55
2022-09-07T07:59:42.943Z,74.48
2022-09-07T08:04:42.870Z,74.82
2022-09-07T08:09:42.815Z,75.95
2022-09-07T08:14:42.739Z,75.75
2022-09-07T08:19:42.680Z,75.88
2022-09-07T08:24:42.607Z,74.74
2022-09-07T08:29:42.552Z,73.61
2022-09-07T08:34:42.475Z,72.35
2022-09-07T08:39:42.609Z,65.06
2022-09-07T08:44:42.348Z,66.01
2022-09-07T08:49:42.290Z,65.38
2022-09-07T08:54:42.216Z,62.85
2022-09-07T08:59:42.158Z,64.30
2022-09-07T09:09:43.053Z,60.40
2022-09-07T09:14:41.960Z,60.33
2022-09-07T09:19:41.902Z,61.48
2022-09-07T09:24:41.834Z,61.38
2022-09-07T09:29:41.774Z,61.60
2022-09-07T09:34:41.703Z,61.48
2022-09-07T09:39:41.731Z,59.17
2022-09-07T09:44:41.617Z,59.22
2022-09-07T09:49:41.519Z,54.71
2022-09-07T09:54:41.444Z,51.36
2022-09-07T09:59:59.378Z,47.74
2022-09-07T10:04:42.343Z,47.86
2022-09-07T10:09:41.265Z,46.45
2022-09-07T10:14:41.198Z,45.94
2022-09-07T10:19:41.135Z,45.44
2022-09-07T10:24:41.078Z,44.85
2022-09-07T10:29:41.020Z,45.41
2022-09-07T10:34:40.955Z,47.23
2022-09-07T10:39:40.952Z,48.26
2022-09-07T10:44:40.822Z,48.79
2022-09-07T10:49:40.918Z,49.50
2022-09-07T10:54:40.686Z,49.26
2022-09-07T11:04:41.583Z,46.13
2022-09-07T11:09:40.508Z,47.23
2022-09-07T11:14:40.425Z,46.62
2022-09-07T11:19:40.380Z,47.11
2022-09-07T11:24:40.298Z,46.35
2022-09-07T11:29:40.268Z,47.37
2022-09-07T11:34:40.176Z,47.39
2022-09-07T11:39:40.230Z,47.52
2022-09-07T11:44:40.050Z,47.83
2022-09-07T11:49:39.991Z,47.49
2022-09-07T11:54:39.930Z,48.71
2022-09-07T11:59:39.870Z,49.94
2022-09-07T12:04:39.917Z,50.68
2022-09-07T12:09:39.749Z,50.58
2022-09-07T12:14:39.683Z,50.95
2022-09-07T12:19:39.625Z,50.36
2022-09-07T12:24:39.559Z,50.75
2022-09-07T12:29:45.248Z,50.06
2022-09-07T12:34:39.434Z,50.06
2022-09-07T12:39:39.459Z,51.56
2022-09-07T12:44:39.310Z,52.38
2022-09-07T12:49:39.240Z,52.99
2022-09-07T12:54:39.184Z,55.98
2022-09-07T12:59:39.339Z,54.52
2022-09-07T13:04:39.054Z,54.01
2022-09-07T13:09:38.996Z,54.10
2022-09-07T13:14:38.925Z,53.71
2022-09-07T13:19:40.303Z,53.41
2022-09-07T13:24:46.974Z,53.02
2022-09-07T13:29:38.742Z,53.44
2022-09-07T13:34:38.668Z,54.65
2022-09-07T13:39:38.631Z,54.85
2022-09-07T13:44:38.539Z,51.89
2022-09-07T13:49:38.465Z,51.37
2022-09-07T13:54:38.411Z,50.46
2022-09-07T13:59:38.337Z,50.95
2022-09-07T14:04:38.280Z,50.73
2022-09-07T14:09:38.207Z,50.06
2022-09-07T14:14:38.150Z,49.87
2022-09-07T14:19:38.079Z,50.48
2022-09-07T14:24:38.029Z,50.61
2022-09-07T14:29:37.951Z,50.92
2022-09-07T14:34:37.891Z,49.93
2022-09-07T14:39:37.953Z,51.51
2022-09-07T14:44:39.052Z,50.92
2022-09-07T14:49:37.695Z,50.63
2022-09-07T14:54:37.636Z,50.73
2022-09-07T14:59:37.565Z,51.42
2022-09-07T15:04:37.554Z,51.51
2022-09-07T15:09:37.438Z,51.54
2022-09-07T15:14:37.391Z,52.53
2022-09-07T15:19:37.309Z,52.36
2022-09-07T15:24:37.263Z,52.85
2022-09-07T15:29:37.181Z,53.07
2022-09-07T15:34:37.137Z,53.57
2022-09-07T15:39:37.166Z,53.89
2022-09-07T15:44:38.129Z,54.29
2022-09-07T15:49:37.196Z,54.21
2022-09-07T15:54:39.546Z,55.60
2022-09-07T15:59:36.797Z,55.70
2022-09-07T16:04:38.717Z,56.19
2022-09-07T16:09:37.703Z,58.07
2022-09-07T16:14:36.617Z,57.87
2022-09-07T16:19:40.672Z,60.05
2022-09-07T16:24:36.497Z,60.94
2022-09-07T16:29:36.418Z,63.48
2022-09-07T16:34:36.372Z,68.23
2022-09-07T16:39:36.336Z,74.29
2022-09-07T16:44:36.245Z,77.05
2022-09-07T16:49:36.160Z,77.97
2022-09-07T16:54:36.112Z,80.46
2022-09-07T16:59:36.028Z,81.40
2022-09-07T17:04:35.981Z,81.93
2022-09-07T17:09:35.899Z,81.83
2022-09-07T17:14:35.855Z,81.07
2022-09-07T17:19:35.775Z,80.02
2022-09-07T17:24:35.732Z,79.46
2022-09-07T17:29:38.711Z,79.26
2022-09-07T17:34:35.602Z,80.16
2022-09-07T17:39:35.570Z,81.19
2022-09-07T17:44:38.329Z,81.89
2022-09-07T17:49:35.388Z,81.99
2022-09-07T17:54:35.331Z,82.19
2022-09-07T18:04:36.294Z,82.33
2022-09-07T18:09:35.126Z,82.87
2022-09-07T18:14:35.072Z,84.61
2022-09-07T18:19:34.999Z,81.05
2022-09-07T18:24:36.895Z,81.45
2022-09-07T18:29:34.868Z,80.45
2022-09-07T18:34:34.820Z,79.35
2022-09-07T18:39:34.767Z,80.15
2022-09-07T18:49:35.643Z,81.18
2022-09-07T18:54:34.585Z,81.48
2022-09-07T18:59:34.477Z,84.03
2022-09-07T19:09:35.410Z,85.36
2022-09-07T19:14:34.293Z,85.27
2022-09-07T19:19:34.229Z,84.86
2022-09-07T19:24:34.165Z,85.27
2022-09-07T19:29:34.090Z,84.57
2022-09-07T19:34:34.036Z,84.06
2022-09-07T19:39:34.030Z,84.36
2022-09-07T19:44:33.906Z,83.97
2022-09-07T19:49:33.836Z,83.27
2022-09-07T19:54:33.777Z,83.67
2022-09-07T19:59:33.706Z,83.36
2022-09-07T20:04:33.683Z,83.97
2022-09-07T20:09:33.579Z,83.77
2022-09-07T20:14:33.519Z,84.97
2022-09-07T20:19:33.445Z,86.01
2022-09-07T20:24:33.450Z,86.05
2022-09-07T20:29:33.328Z,86.25
2022-09-07T20:34:33.344Z,86.69
2022-09-07T20:39:38.427Z,86.39
2022-09-07T20:44:33.130Z,86.13
2022-09-07T20:49:33.067Z,85.93
2022-09-07T20:54:32.998Z,86.53
2022-09-07T20:59:32.995Z,86.77
2022-09-07T21:04:32.865Z,87.68
2022-09-07T21:09:32.791Z,88.18
2022-09-07T21:14:32.733Z,88.42
2022-09-07T21:19:32.659Z,88.42
2022-09-07T21:24:32.601Z,88.42
2022-09-07T21:29:32.529Z,88.32
2022-09-07T21:34:32.469Z,88.76
2022-09-07T21:39:32.553Z,88.97
2022-09-07T21:44:32.332Z,89.11
2022-09-07T21:49:32.266Z,89.21
2022-09-07T21:54:32.195Z,88.90
2022-09-07T21:59:32.129Z,89.21
2022-09-07T22:04:32.070Z,89.11
2022-09-07T22:09:31.995Z,88.61
2022-09-07T22:14:31.937Z,88.31
2022-09-07T22:19:31.868Z,88.45
2022-09-07T22:24:31.806Z,88.45
2022-09-07T22:29:31.735Z,88.35
2022-09-07T22:34:31.676Z,88.35
2022-09-07T22:39:31.664Z,88.45
2022-09-07T22:44:31.556Z,88.89
2022-09-07T22:49:31.474Z,89.19
2022-09-07T22:54:31.416Z,89.39
2022-09-07T22:59:31.344Z,89.50
2022-09-07T23:04:32.001Z,89.54
2022-09-07T23:09:31.213Z,90.14
2022-09-07T23:14:31.154Z,90.49
2022-09-07T23:19:31.081Z,90.49
2022-09-07T23:24:31.024Z,90.89
2022-09-07T23:29:30.952Z,90.83
2022-09-07T23:34:30.893Z,91.13
2022-09-07T23:39:30.862Z,90.83
2022-09-07T23:44:30.766Z,90.13
2022-09-07T23:49:30.695Z,90.37
2022-09-07T23:54:30.639Z,90.67
2022-09-07T23:59:30.568Z,90.88
